Armstrong, Missouri
Current Conditions -  °F | °C
As of 2:55 PM on Friday 31 Oct 2014 (Local Time) from KVER Reporting Station
Clear Clear  
Wind Chill:   Ceiling: Unl
Heat Index:   Visibility: 10mi
Dew Point: -8°   Wind: 16mph
Humidity: 33%   Direction: 340°NNW
Pressure: 30.39"   Gusts: 23mph
Location:  39.27°N, 92.7°W
Report Text: KVER 311955Z AUTO 34014G20KT 10SM CLR 07/M08 A3039 RMK AO2 T00741080
Loading
Personal Weather Stations






























Interactive Weather Map New forecast layout! Learn more

10-Day Weather Forecast

Advertisements
Track Severe Weather on mobile